Time;durP1;ratioP1;P1;durP2;ratioP2;P2;SDS_P1;SDS_P2;PMS_P1;PMS_P2;Temp;Humidity;BMP_temperature;BMP_pressure;BME280_temperature;BME280_humidity;BME280_pressure;Samples;Min_cycle;Max_cycle;Signal;HPM_P1;HPM_P2
2023/05/30 00:01:35;;;;;;;20.98;5.55;;;;;;;15.72;40.07;100010.44;5051543;28;20040;-58
2023/05/30 00:04:01;;;;;;;19.63;5.00;;;;;;;15.77;39.82;100008.97;5033798;28;20460;-58
2023/05/30 00:06:27;;;;;;;16.00;5.03;;;;;;;15.52;39.90;99978.19;5051690;28;20399;-59
2023/05/30 00:08:53;;;;;;;18.35;5.70;;;;;;;15.75;39.98;100018.22;5053809;28;20515;-59
2023/05/30 00:11:19;;;;;;;17.90;5.22;;;;;;;15.76;39.47;100006.44;5055388;28;20036;-61
2023/05/30 00:13:44;;;;;;;21.63;6.43;;;;;;;15.82;39.58;100013.91;5055602;28;20036;-60
2023/05/30 00:16:11;;;;;;;22.45;5.40;;;;;;;15.83;39.94;100014.78;5055841;28;20025;-61
2023/05/30 00:18:37;;;;;;;17.38;5.47;;;;;;;15.84;39.74;100021.88;5054974;28;20064;-59
2023/05/30 00:21:10;;;;;;;20.98;5.68;;;;;;;15.71;39.75;99988.00;5055351;28;20037;-58
2023/05/30 00:23:37;;;;;;;17.98;5.45;;;;;;;15.73;39.65;99994.06;5055083;28;20037;-61
2023/05/30 00:26:04;;;;;;;15.63;5.35;;;;;;;15.83;40.75;100017.47;5055314;28;20033;-60
2023/05/30 00:28:30;;;;;;;22.80;5.90;;;;;;;15.83;40.27;100007.50;5054924;28;20056;-60
2023/05/30 00:30:55;;;;;;;22.92;6.05;;;;;;;15.86;40.63;100015.28;5055040;28;20029;-61
2023/05/30 00:33:21;;;;;;;17.88;5.97;;;;;;;15.85;40.54;100010.91;5055399;28;20411;-61
2023/05/30 00:35:46;;;;;;;24.98;6.57;;;;;;;15.92;40.32;100013.88;5037259;28;20029;-66
2023/05/30 00:38:12;;;;;;;15.35;5.57;;;;;;;15.90;41.14;100016.72;5054903;28;20083;-60
2023/05/30 00:40:37;;;;;;;17.63;5.57;;;;;;;15.84;41.01;100001.09;5054408;28;20033;-60
2023/05/30 00:43:03;;;;;;;19.77;5.70;;;;;;;15.85;41.24;100010.91;5055199;28;20382;-59
2023/05/30 00:45:29;;;;;;;21.73;6.13;;;;;;;15.80;42.04;100005.13;5054811;28;20365;-62
2023/05/30 00:47:54;;;;;;;24.23;6.40;;;;;;;15.77;41.47;100000.03;5054610;28;20425;-61
2023/05/30 00:50:21;;;;;;;23.95;6.30;;;;;;;15.73;42.28;100012.97;5054677;28;20136;-63
2023/05/30 00:52:48;;;;;;;21.45;5.82;;;;;;;15.72;41.88;100016.69;5055238;28;20400;-61
2023/05/30 00:55:16;;;;;;;19.35;5.72;;;;;;;15.70;42.00;100007.06;5054543;28;20108;-60
2023/05/30 00:57:42;;;;;;;18.25;6.13;;;;;;;15.62;42.35;100000.53;5054507;28;20051;-60
2023/05/30 01:00:13;;;;;;;15.60;6.05;;;;;;;15.38;42.07;99960.69;5054491;28;20040;-60
2023/05/30 01:02:39;;;;;;;16.15;6.15;;;;;;;15.68;42.92;100006.34;5054431;28;20098;-57
2023/05/30 01:05:06;;;;;;;24.45;5.97;;;;;;;15.64;42.63;100003.09;5054127;28;20498;-59
2023/05/30 01:07:33;;;;;;;22.60;6.28;;;;;;;15.59;43.09;99997.31;5054132;28;20048;-60
2023/05/30 01:09:59;;;;;;;21.20;5.47;;;;;;;15.61;43.30;100015.03;5054268;28;20021;-59
2023/05/30 01:13:09;;;;;;;22.60;6.03;;;;;;;15.77;42.91;100002.72;5053927;28;20086;-58
2023/05/30 01:15:48;;;;;;;21.52;5.53;;;;;;;15.71;42.92;99998.78;5007324;28;20337;-59
2023/05/30 01:18:23;;;;;;;14.93;5.43;;;;;;;15.69;43.17;100005.34;5054084;28;20055;-61
2023/05/30 01:21:00;;;;;;;17.27;5.55;;;;;;;15.67;43.66;100012.72;5052586;28;20119;-61
2023/05/30 01:23:44;;;;;;;21.17;5.75;;;;;;;15.69;42.84;100010.75;5053621;28;20037;-62
2023/05/30 01:26:13;;;;;;;15.75;5.90;;;;;;;15.72;44.11;100013.16;5054312;28;20041;-58
2023/05/30 01:28:39;;;;;;;18.73;6.07;;;;;;;15.65;43.68;100002.94;5053560;28;20046;-59
2023/05/30 01:31:04;;;;;;;23.77;6.53;;;;;;;15.71;42.76;100003.34;5053570;28;20025;-59
2023/05/30 01:33:30;;;;;;;22.65;6.22;;;;;;;15.68;43.88;100009.06;5053687;28;20037;-62
2023/05/30 01:35:56;;;;;;;19.27;5.80;;;;;;;15.61;43.32;99993.44;5053553;28;20138;-59
2023/05/30 01:38:22;;;;;;;20.58;6.05;;;;;;;15.71;43.39;100011.44;5053667;28;20116;-61
2023/05/30 01:40:58;;;;;;;15.55;5.97;;;;;;;15.83;43.37;100006.69;5054177;28;20457;-59
2023/05/30 01:43:38;;;;;;;21.00;5.90;;;;;;;15.79;43.60;100011.53;5053560;28;20021;-65
2023/05/30 01:46:15;;;;;;;16.98;5.32;;;;;;;15.85;44.18;100016.31;5035679;28;20055;-59
2023/05/30 01:49:00;;;;;;;22.13;6.57;;;;;;;15.85;43.05;100002.78;5053858;28;20094;-61
2023/05/30 01:51:34;;;;;;;20.05;6.25;;;;;;;15.86;43.78;99995.56;5053855;28;20409;-60
2023/05/30 01:54:03;;;;;;;17.98;6.40;;;;;;;15.89;43.98;100001.50;5053212;28;20043;-60
2023/05/30 01:56:31;;;;;;;19.65;6.15;;;;;;;15.87;43.93;100008.88;5053353;28;20069;-59
2023/05/30 01:58:59;;;;;;;23.40;6.55;;;;;;;15.87;44.53;99992.69;5053570;28;20037;-60
2023/05/30 02:01:28;;;;;;;29.25;7.13;;;;;;;15.91;45.58;100002.25;5052913;28;20029;-58
2023/05/30 02:03:54;;;;;;;16.85;6.45;;;;;;;15.88;45.32;99994.41;5053397;28;20032;-60
2023/05/30 02:06:20;;;;;;;16.25;6.22;;;;;;;15.91;44.97;99996.84;5036183;28;20056;-59
2023/05/30 02:08:45;;;;;;;19.70;6.45;;;;;;;15.92;45.21;99995.84;5053583;28;20448;-55
2023/05/30 02:11:11;;;;;;;17.58;6.53;;;;;;;15.90;45.09;99986.19;5052360;28;20033;-60
2023/05/30 02:13:37;;;;;;;22.55;6.63;;;;;;;15.91;45.41;99980.63;5053186;28;20045;-60
2023/05/30 02:16:03;;;;;;;21.92;6.82;;;;;;;15.95;45.98;99994.66;5053052;28;20035;-59
2023/05/30 02:18:29;;;;;;;18.20;6.97;;;;;;;15.98;45.68;100001.63;5053286;28;20045;-61
2023/05/30 02:20:55;;;;;;;31.25;8.80;;;;;;;15.87;44.10;99971.09;5052699;28;20469;-58
2023/05/30 02:23:21;;;;;;;25.98;8.73;;;;;;;16.11;43.35;99999.34;5053186;28;20040;-60
2023/05/30 02:25:47;;;;;;;24.48;9.45;;;;;;;16.20;42.25;99995.72;5052869;28;20080;-59
2023/05/30 02:28:12;;;;;;;28.40;8.27;;;;;;;16.24;43.53;99998.13;5053267;28;20032;-58
2023/05/30 02:30:38;;;;;;;29.45;9.05;;;;;;;16.24;42.47;99987.31;5052045;28;20067;-59
2023/05/30 02:33:03;;;;;;;28.63;8.95;;;;;;;16.36;43.34;99999.53;5052643;28;20385;-60
2023/05/30 02:35:29;;;;;;;34.03;8.73;;;;;;;16.44;43.92;99999.63;5052522;28;20104;-59
2023/05/30 02:37:54;;;;;;;21.10;9.05;;;;;;;16.56;43.27;99997.50;5053011;28;20464;-60
2023/05/30 02:40:20;;;;;;;24.35;8.73;;;;;;;16.76;43.39;100003.53;5053036;28;20120;-61
2023/05/30 02:42:46;;;;;;;25.83;8.38;;;;;;;16.87;42.75;99988.91;5052277;28;20071;-61
2023/05/30 02:45:12;;;;;;;24.77;9.02;;;;;;;17.07;42.22;100010.31;5052548;28;20032;-60
2023/05/30 02:47:38;;;;;;;34.80;9.52;;;;;;;17.15;43.35;100006.81;5052817;28;20106;-59
2023/05/30 02:50:04;;;;;;;24.40;9.52;;;;;;;17.32;40.05;100008.56;5052280;28;20461;-59
2023/05/30 02:52:30;;;;;;;30.48;9.85;;;;;;;17.45;39.92;100001.84;5052204;28;20039;-57
2023/05/30 02:54:56;;;;;;;26.27;8.90;;;;;;;17.45;39.48;99982.91;5052315;28;20033;-61
2023/05/30 02:57:21;;;;;;;19.85;8.82;;;;;;;17.73;39.32;99994.31;5052707;28;20028;-59
2023/05/30 02:59:47;;;;;;;27.27;8.90;;;;;;;17.80;40.59;99989.06;5051478;28;20033;-59
2023/05/30 03:02:13;;;;;;;23.65;8.50;;;;;;;17.66;39.41;99963.47;5052308;28;20052;-60
2023/05/30 03:04:38;;;;;;;25.70;8.68;;;;;;;17.89;39.66;99989.91;5052167;28;20346;-60
2023/05/30 03:07:08;;;;;;;22.40;9.05;;;;;;;18.07;41.61;99993.34;5052206;28;20041;-57
2023/05/30 03:09:34;;;;;;;22.88;8.90;;;;;;;18.18;38.83;99969.63;5051905;28;20029;-58
2023/05/30 03:12:00;;;;;;;23.17;9.10;;;;;;;18.63;39.39;99997.22;5052131;28;20535;-59
2023/05/30 03:14:26;;;;;;;20.90;9.48;;;;;;;18.97;38.78;99989.81;5052208;28;20025;-61
2023/05/30 03:16:52;;;;;;;34.08;9.77;;;;;;;19.49;38.30;100002.00;5052252;28;20418;-59
2023/05/30 03:19:18;;;;;;;22.50;8.80;;;;;;;19.93;37.11;99955.22;5050991;28;20077;-59
2023/05/30 03:21:43;;;;;;;24.58;8.60;;;;;;;20.78;35.72;100004.06;5052134;28;20429;-58
2023/05/30 03:24:11;;;;;;;22.80;8.88;;;;;;;20.95;35.59;99968.50;5052130;28;20044;-61
2023/05/30 03:26:37;;;;;;;19.80;8.20;;;;;;;21.54;34.92;99969.47;5051844;28;20025;-63
2023/05/30 03:29:02;;;;;;;20.92;8.50;;;;;;;22.28;32.19;99974.81;5051928;28;20057;-62
2023/05/30 03:31:29;;;;;;;20.95;8.00;;;;;;;22.95;30.10;99991.66;5034311;28;20106;-61
2023/05/30 03:33:54;;;;;;;17.08;7.97;;;;;;;23.77;29.96;99988.22;5052199;28;20021;-61
2023/05/30 03:36:20;;;;;;;15.32;7.88;;;;;;;24.51;28.79;99989.13;5052157;28;20094;-60
2023/05/30 03:38:46;;;;;;;25.42;8.60;;;;;;;25.22;27.19;99999.53;5051732;28;20158;-61
2023/05/30 03:41:12;;;;;;;20.60;6.97;;;;;;;25.91;25.96;99990.75;5051868;28;20061;-61
2023/05/30 03:43:37;;;;;;;16.95;6.80;;;;;;;26.64;24.75;99994.00;5055927;28;20421;-62
2023/05/30 03:46:03;;;;;;;17.75;5.38;;;;;;;27.41;22.20;99997.38;5056517;28;20086;-61
2023/05/30 03:48:29;;;;;;;14.68;5.53;;;;;;;28.22;21.75;99992.47;5055508;28;20037;-61
2023/05/30 03:50:55;;;;;;;21.27;5.93;;;;;;;29.04;20.61;99987.19;5055735;28;20122;-61
2023/05/30 03:53:20;;;;;;;18.02;6.75;;;;;;;29.82;19.67;99996.19;5056021;28;20119;-62
2023/05/30 03:55:47;;;;;;;10.68;3.88;;;;;;;30.51;18.16;99989.63;5056231;28;20087;-61
2023/05/30 03:58:12;;;;;;;9.80;3.25;;;;;;;31.32;16.05;99987.44;5055379;28;20036;-61
2023/05/30 04:00:38;;;;;;;8.13;3.75;;;;;;;32.08;15.60;99991.31;5055287;28;20037;-63
2023/05/30 04:03:04;;;;;;;11.13;3.53;;;;;;;32.57;15.88;99986.72;5056048;28;20449;-61
2023/05/30 04:05:29;;;;;;;10.98;3.92;;;;;;;33.06;14.79;99988.38;5056047;28;20033;-61
2023/05/30 04:07:55;;;;;;;9.15;3.78;;;;;;;33.36;14.80;99993.22;5055943;28;20349;-60
2023/05/30 04:10:21;;;;;;;9.52;3.20;;;;;;;33.40;14.42;99981.56;5055224;28;20114;-61
2023/05/30 04:12:47;;;;;;;8.27;3.28;;;;;;;33.62;13.50;99985.00;5038111;28;20132;-61
2023/05/30 04:15:12;;;;;;;6.65;2.53;;;;;;;34.05;13.00;99986.75;5056024;28;20441;-62
2023/05/30 04:17:38;;;;;;;9.05;3.05;;;;;;;34.06;13.18;99985.63;5055393;28;20061;-61
2023/05/30 04:20:05;;;;;;;5.88;2.47;;;;;;;33.02;13.82;99918.75;5055031;28;20072;-62
2023/05/30 04:22:32;;;;;;;9.07;2.85;;;;;;;33.95;13.06;99986.69;5055926;28;20074;-61
2023/05/30 04:24:58;;;;;;;9.23;2.80;;;;;;;35.27;12.20;99991.53;5056251;28;20029;-62
2023/05/30 04:27:24;;;;;;;7.22;2.90;;;;;;;36.12;11.13;99986.00;5055197;28;20024;-63
2023/05/30 04:29:50;;;;;;;8.00;2.92;;;;;;;36.81;11.01;99995.41;5054649;28;20425;-61
2023/05/30 04:32:16;;;;;;;6.60;2.75;;;;;;;36.33;11.17;99992.25;5055483;28;20044;-60
2023/05/30 04:34:43;;;;;;;7.18;3.05;;;;;;;35.40;12.22;99992.00;5055574;28;20028;-62
2023/05/30 04:37:11;;;;;;;9.75;2.85;;;;;;;34.63;12.46;99993.94;5055209;28;20033;-61
2023/05/30 04:39:37;;;;;;;9.43;3.13;;;;;;;33.78;13.03;99987.81;5053743;28;20043;-59
2023/05/30 04:42:04;;;;;;;5.20;2.50;;;;;;;32.78;13.84;99995.97;5054708;28;20456;-61
2023/05/30 04:44:37;;;;;;;9.43;2.70;;;;;;;31.85;14.71;99992.47;5055360;28;20441;-67
2023/05/30 04:47:10;;;;;;;7.00;2.72;;;;;;;30.99;15.04;99979.00;5055070;28;20021;-61
2023/05/30 04:49:41;;;;;;;5.78;2.70;;;;;;;31.38;15.07;99966.22;5054538;28;20028;-61
2023/05/30 04:52:07;;;;;;;9.38;2.55;;;;;;;32.16;14.00;99976.13;5054598;28;20037;-62
2023/05/30 04:54:33;;;;;;;5.53;2.15;;;;;;;31.70;14.65;99980.09;5036176;28;20063;-61
2023/05/30 04:56:59;;;;;;;8.38;2.50;;;;;;;30.78;15.00;99983.44;5054678;28;20061;-61
2023/05/30 04:59:25;;;;;;;4.45;1.98;;;;;;;29.82;15.25;99982.38;5050413;28;20460;-64
2023/05/30 05:01:52;;;;;;;7.07;2.10;;;;;;;29.07;15.79;99977.63;5033790;28;20079;-62
2023/05/30 05:04:17;;;;;;;7.38;1.50;;;;;;;28.37;16.26;99971.88;5034582;28;20033;-62
2023/05/30 05:06:43;;;;;;;3.72;1.60;;;;;;;27.68;17.01;99986.06;5034582;28;20128;-62
2023/05/30 05:09:10;;;;;;;5.50;1.70;;;;;;;26.90;17.41;99959.97;5038838;28;20505;-61
2023/05/30 05:11:36;;;;;;;7.80;1.60;;;;;;;26.52;17.74;99991.16;5054261;28;20299;-60
2023/05/30 05:14:02;;;;;;;5.13;1.58;;;;;;;25.91;17.68;99955.09;5054444;28;20021;-68
2023/05/30 05:16:27;;;;;;;4.53;1.55;;;;;;;25.83;18.13;99983.66;5037223;28;20032;-61
2023/05/30 05:18:53;;;;;;;1.77;1.48;;;;;;;25.59;18.50;99982.53;5053450;28;20404;-63
2023/05/30 05:21:19;;;;;;;3.92;1.67;;;;;;;25.78;18.87;99978.81;5054293;28;20036;-64
2023/05/30 05:23:44;;;;;;;5.00;1.75;;;;;;;25.91;18.92;99993.50;5054293;28;20120;-64
2023/05/30 05:26:10;;;;;;;9.35;2.10;;;;;;;25.77;19.02;99974.41;5054177;28;20033;-64
2023/05/30 05:28:36;;;;;;;7.30;1.98;;;;;;;25.64;19.61;99982.69;5052260;28;20446;-65
2023/05/30 05:31:01;;;;;;;3.42;1.50;;;;;;;25.81;18.38;99985.78;5037794;28;20032;-63
2023/05/30 05:33:27;;;;;;;3.05;1.80;;;;;;;25.99;18.32;99981.41;5054238;28;20029;-62
2023/05/30 05:35:52;;;;;;;6.30;2.00;;;;;;;26.35;17.61;99979.91;5053861;28;20323;-64
2023/05/30 05:38:18;;;;;;;4.63;1.80;;;;;;;26.63;17.82;99953.88;5053650;28;20025;-63
2023/05/30 05:40:43;;;;;;;6.15;1.77;;;;;;;27.64;17.13;99975.53;5053977;28;20028;-63
2023/05/30 05:43:09;;;;;;;4.65;2.00;;;;;;;28.42;15.98;99979.44;5053847;28;20071;-63
2023/05/30 05:45:35;;;;;;;3.17;1.67;;;;;;;29.09;15.42;99983.72;5053226;28;20353;-66
2023/05/30 05:48:00;;;;;;;1.65;1.50;;;;;;;29.07;15.10;99970.16;5054030;28;20089;-64
2023/05/30 05:50:26;;;;;;;3.00;1.30;;;;;;;29.00;14.80;99982.41;5054076;28;20025;-63
2023/05/30 05:52:52;;;;;;;3.80;1.40;;;;;;;28.64;15.24;99975.00;5036073;28;20116;-63
2023/05/30 05:55:17;;;;;;;1.65;1.40;;;;;;;28.31;15.57;99972.84;5053147;28;20091;-63
2023/05/30 05:57:43;;;;;;;2.60;1.30;;;;;;;28.01;15.50;99974.56;5053583;28;20033;-62
2023/05/30 06:00:09;;;;;;;1.70;1.23;;;;;;;28.44;15.17;99978.09;5053963;28;20437;-63
2023/05/30 06:02:35;;;;;;;2.85;1.50;;;;;;;28.42;15.07;99969.22;5053621;28;20174;-70
2023/05/30 06:05:01;;;;;;;5.80;1.40;;;;;;;28.72;15.03;99976.56;5053400;28;20459;-63
2023/05/30 06:07:27;;;;;;;7.70;1.50;;;;;;;30.18;13.46;99983.03;5053622;28;20067;-64
2023/05/30 06:09:53;;;;;;;1.55;1.40;;;;;;;31.69;12.46;99972.91;5053258;28;20104;-64
2023/05/30 06:12:18;;;;;;;1.88;1.50;;;;;;;31.60;12.35;99967.03;5052922;28;20033;-63
2023/05/30 06:14:44;;;;;;;7.32;1.90;;;;;;;31.29;13.13;99958.38;5052838;28;20095;-62
2023/05/30 06:17:10;;;;;;;3.70;1.75;;;;;;;30.83;13.24;99963.28;5052371;28;20084;-63
2023/05/30 06:19:35;;;;;;;3.97;1.35;;;;;;;30.14;13.95;99973.56;5053140;28;20029;-63
2023/05/30 06:22:01;;;;;;;3.92;1.48;;;;;;;29.40;14.17;99961.41;5053168;28;20025;-62
2023/05/30 06:24:26;;;;;;;4.38;1.45;;;;;;;28.86;14.77;99962.53;5052569;28;20068;-63
2023/05/30 06:26:52;;;;;;;3.70;1.70;;;;;;;28.31;15.34;99950.81;5052596;28;20103;-62
2023/05/30 06:29:18;;;;;;;4.97;1.77;;;;;;;27.91;15.74;99958.63;5052962;28;20036;-63
2023/05/30 06:31:43;;;;;;;4.03;1.55;;;;;;;28.57;15.22;99954.97;5052534;28;20033;-64
2023/05/30 06:34:09;;;;;;;3.92;1.60;;;;;;;32.40;12.10;99943.38;5052143;28;20029;-63
2023/05/30 06:36:34;;;;;;;3.28;1.70;;;;;;;36.53;9.31;99939.38;5052833;28;20110;-63
2023/05/30 06:39:00;;;;;;;4.10;1.45;;;;;;;39.59;7.68;99949.91;5035279;28;20317;-63
2023/05/30 06:41:26;;;;;;;3.13;1.30;;;;;;;41.80;6.09;99943.22;5052223;28;20036;-65
2023/05/30 06:43:51;;;;;;;3.83;1.70;;;;;;;43.72;5.39;99944.63;5051995;28;20467;-64
2023/05/30 06:46:17;;;;;;;2.58;1.90;;;;;;;45.33;4.71;99946.81;5052175;28;20037;-64
2023/05/30 06:48:42;;;;;;;3.80;1.70;;;;;;;46.37;4.07;99941.59;5052072;28;20454;-63
2023/05/30 06:51:08;;;;;;;1.60;1.50;;;;;;;47.31;3.68;99948.72;5052729;28;20032;-68
2023/05/30 06:53:34;;;;;;;2.05;1.40;;;;;;;48.04;3.54;99923.47;5052586;28;20047;-63
2023/05/30 06:55:59;;;;;;;3.60;1.60;;;;;;;48.95;3.20;99939.16;5034499;28;20037;-63
2023/05/30 06:58:25;;;;;;;2.70;1.52;;;;;;;50.28;3.14;99936.28;5052099;28;20407;-64
2023/05/30 07:00:51;;;;;;;4.00;1.58;;;;;;;51.36;2.44;99929.69;5051882;28;20477;-63
2023/05/30 07:03:17;;;;;;;7.65;1.95;;;;;;;51.71;2.01;99939.59;5034320;28;20025;-62
2023/05/30 07:05:42;;;;;;;6.40;1.88;;;;;;;51.62;1.96;99936.31;5052108;28;20043;-63
2023/05/30 07:08:08;;;;;;;4.70;2.10;;;;;;;52.07;1.82;99922.53;5044544;28;20037;-69
2023/05/30 07:10:34;;;;;;;3.03;2.28;;;;;;;52.93;1.95;99932.28;5044876;28;20036;-66
2023/05/30 07:13:00;;;;;;;3.17;2.38;;;;;;;53.61;1.59;99923.84;5051420;28;20064;-66
2023/05/30 07:15:27;;;;;;;4.70;2.72;;;;;;;53.95;0.94;99926.09;5051294;28;20440;-67
2023/05/30 07:17:53;;;;;;;2.83;2.63;;;;;;;54.18;1.15;99924.72;5050823;28;20059;-67
2023/05/30 07:20:22;;;;;;;6.22;2.88;;;;;;;54.54;1.15;99915.81;5051760;28;20124;-68
2023/05/30 07:22:49;;;;;;;4.68;3.15;;;;;;;54.90;0.08;99908.88;5051253;28;20032;-66
2023/05/30 07:25:14;;;;;;;3.40;3.10;;;;;;;54.78;0.34;99913.91;5051746;28;20033;-67
2023/05/30 07:27:40;;;;;;;3.47;3.13;;;;;;;54.38;1.09;99908.59;5050624;28;20082;-64
2023/05/30 07:30:06;;;;;;;4.90;3.08;;;;;;;54.46;1.07;99911.38;5052666;28;20037;-63
2023/05/30 07:32:32;;;;;;;3.55;3.25;;;;;;;54.08;1.14;99898.63;5051725;28;20441;-62
2023/05/30 07:34:57;;;;;;;5.05;3.28;;;;;;;53.34;0.93;99905.16;5034473;28;20035;-63
2023/05/30 07:37:23;;;;;;;3.08;2.78;;;;;;;53.21;0.90;99895.44;5051683;28;20142;-64
2023/05/30 07:39:48;;;;;;;3.20;2.63;;;;;;;53.61;0.78;99893.19;5052092;28;20032;-64
2023/05/30 07:42:14;;;;;;;4.43;3.33;;;;;;;53.66;0.70;99897.66;5051910;28;20036;-63
2023/05/30 07:44:39;;;;;;;5.20;3.20;;;;;;;53.42;0.81;99905.97;5047980;28;20076;-67
2023/05/30 07:47:05;;;;;;;5.63;3.58;;;;;;;53.42;1.11;99882.25;5051219;28;20025;-65
2023/05/30 07:49:31;;;;;;;4.25;2.90;;;;;;;53.79;1.16;99883.69;5051335;28;20091;-64
2023/05/30 07:51:57;;;;;;;3.88;3.40;;;;;;;53.75;0.48;99877.19;5032575;28;20489;-64
2023/05/30 07:54:22;;;;;;;4.32;3.40;;;;;;;53.43;0.94;99881.84;5051056;28;20485;-65
2023/05/30 07:56:47;;;;;;;6.80;3.10;;;;;;;51.65;1.52;99867.03;5051678;28;20029;-64
2023/05/30 07:59:13;;;;;;;3.17;2.42;;;;;;;51.10;1.80;99886.78;5051519;28;20349;-64
2023/05/30 08:01:38;;;;;;;3.30;2.63;;;;;;;50.79;1.39;99862.59;5030935;28;20029;-66
2023/05/30 08:04:04;;;;;;;3.03;2.30;;;;;;;50.30;1.80;99874.06;5050367;28;20040;-64
2023/05/30 08:06:31;;;;;;;4.30;2.40;;;;;;;49.83;2.51;99871.59;5051553;28;20033;-64
2023/05/30 08:08:56;;;;;;;3.72;2.33;;;;;;;49.17;2.52;99866.38;5030108;28;20032;-66
2023/05/30 08:11:22;;;;;;;2.10;2.00;;;;;;;48.67;2.85;99857.97;5031319;28;20021;-67
2023/05/30 08:13:47;;;;;;;3.92;2.30;;;;;;;48.22;3.08;99854.81;5039553;28;20326;-66
2023/05/30 08:16:14;;;;;;;4.50;2.30;;;;;;;47.33;3.33;99862.09;5051680;28;20058;-65
2023/05/30 08:18:41;;;;;;;5.75;2.08;;;;;;;45.47;3.97;99861.63;5050400;28;20068;-65
2023/05/30 08:21:10;;;;;;;3.33;1.90;;;;;;;42.72;5.53;99873.59;5051571;28;20052;-67
2023/05/30 08:23:36;;;;;;;6.15;2.15;;;;;;;39.83;6.73;99828.31;5050822;28;20471;-62
2023/05/30 08:26:02;;;;;;;5.50;1.98;;;;;;;37.67;7.66;99868.09;5051431;28;20118;-63
2023/05/30 08:28:28;;;;;;;4.97;1.80;;;;;;;35.84;8.85;99862.28;5050935;28;20441;-61
2023/05/30 08:30:53;;;;;;;2.35;1.75;;;;;;;34.44;9.60;99866.63;5054783;28;20036;-63
2023/05/30 08:33:20;;;;;;;4.18;1.65;;;;;;;33.33;10.66;99874.47;5055155;28;20040;-63
2023/05/30 08:35:46;;;;;;;2.25;1.50;;;;;;;32.47;11.07;99858.06;5052747;28;20063;-65
2023/05/30 08:38:13;;;;;;;5.82;1.92;;;;;;;32.05;11.12;99861.66;5037146;28;20098;-69
2023/05/30 08:40:43;;;;;;;6.13;1.80;;;;;;;31.72;11.73;99858.06;5037299;28;20036;-63
2023/05/30 08:43:09;;;;;;;1.98;1.60;;;;;;;31.31;12.16;99862.13;5054667;28;20423;-63
2023/05/30 08:45:36;;;;;;;3.17;1.70;;;;;;;30.74;12.88;99831.09;5036305;28;20036;-62
2023/05/30 08:48:02;;;;;;;2.25;1.42;;;;;;;30.44;12.94;99850.84;5054745;28;20135;-61
2023/05/30 08:50:30;;;;;;;5.20;1.50;;;;;;;29.98;13.23;99851.00;5054805;28;20029;-61
2023/05/30 08:53:06;;;;;;;3.88;1.70;;;;;;;29.67;13.43;99848.59;5053935;28;20036;-63
2023/05/30 08:55:39;;;;;;;3.00;1.67;;;;;;;29.16;13.73;99818.16;5034534;28;20073;-62
2023/05/30 08:58:10;;;;;;;3.72;1.70;;;;;;;28.86;14.27;99844.91;5016718;28;20025;-62
2023/05/30 09:00:37;;;;;;;5.30;1.60;;;;;;;28.49;15.18;99851.56;5053371;28;20025;-61
2023/05/30 09:03:05;;;;;;;7.00;2.00;;;;;;;28.41;15.18;99846.41;5053615;28;20416;-62
2023/05/30 09:05:34;;;;;;;5.53;1.75;;;;;;;28.08;15.30;99812.09;5054048;28;20033;-62
2023/05/30 09:08:03;;;;;;;6.18;2.00;;;;;;;28.29;15.19;99829.91;5054040;28;20037;-66
2023/05/30 09:10:29;;;;;;;8.43;1.70;;;;;;;28.52;15.33;99841.97;5034318;28;20074;-61
2023/05/30 09:12:57;;;;;;;2.22;1.67;;;;;;;28.69;15.08;99827.44;5016655;28;20032;-62
2023/05/30 09:15:22;;;;;;;4.75;1.98;;;;;;;28.89;14.98;99836.16;5047469;28;20036;-63
2023/05/30 09:17:48;;;;;;;5.65;2.13;;;;;;;28.88;15.26;99826.22;5035736;28;20040;-61
2023/05/30 09:20:19;;;;;;;4.65;2.17;;;;;;;28.96;15.14;99830.50;5036480;28;20128;-71
2023/05/30 09:22:47;;;;;;;6.07;2.53;;;;;;;29.04;14.95;99824.56;5036776;28;20029;-71
2023/05/30 09:25:17;;;;;;;5.05;1.90;;;;;;;29.00;14.70;99831.66;5034237;28;20029;-63
2023/05/30 09:27:48;;;;;;;4.90;2.03;;;;;;;28.91;14.95;99819.34;5053693;28;20032;-59
2023/05/30 09:30:14;;;;;;;6.35;2.13;;;;;;;28.71;15.19;99814.25;5054227;28;20029;-62
2023/05/30 09:32:39;;;;;;;3.65;1.83;;;;;;;28.51;15.04;99812.75;5054295;28;20426;-61
2023/05/30 09:35:09;;;;;;;4.43;1.80;;;;;;;28.45;15.09;99819.25;5053600;28;20029;-63
2023/05/30 09:37:41;;;;;;;3.58;1.63;;;;;;;28.33;15.38;99811.00;5053628;28;20134;-60
2023/05/30 09:40:16;;;;;;;5.18;1.80;;;;;;;28.11;15.48;99800.59;5047566;28;20028;-66
2023/05/30 09:42:50;;;;;;;3.63;1.80;;;;;;;28.03;15.89;99807.28;5052716;28;20037;-69
2023/05/30 09:45:18;;;;;;;6.00;2.20;;;;;;;27.78;15.77;99788.28;5053175;28;20061;-70
2023/05/30 09:47:47;;;;;;;7.82;2.33;;;;;;;27.77;15.64;99792.13;5052458;28;20051;-61
2023/05/30 09:50:15;;;;;;;4.15;2.17;;;;;;;27.77;16.27;99784.69;5053013;28;20361;-62
2023/05/30 09:52:42;;;;;;;4.47;1.88;;;;;;;27.79;16.11;99787.22;5053797;28;20127;-63
2023/05/30 09:55:09;;;;;;;4.80;1.98;;;;;;;27.82;15.87;99788.63;5052914;28;20052;-63
2023/05/30 09:57:39;;;;;;;4.18;2.00;;;;;;;28.08;15.79;99796.38;5053067;28;20291;-62
2023/05/30 10:00:11;;;;;;;6.40;2.38;;;;;;;28.05;15.95;99785.03;5040684;28;20034;-62
2023/05/30 10:02:39;;;;;;;6.32;2.03;;;;;;;27.78;15.37;99756.09;5048831;28;20105;-64
2023/05/30 10:05:26;;;;;;;4.90;2.00;;;;;;;27.96;15.57;99773.56;5025109;28;20036;-64
2023/05/30 10:07:54;;;;;;;5.05;1.90;;;;;;;28.07;15.65;99774.63;5034701;28;20457;-63
2023/05/30 10:10:20;;;;;;;8.02;2.10;;;;;;;27.84;15.92;99761.72;5052277;28;20033;-63
2023/05/30 10:12:49;;;;;;;4.05;2.10;;;;;;;27.52;16.05;99751.94;5053491;28;20159;-74
2023/05/30 10:15:15;;;;;;;3.50;2.00;;;;;;;27.46;16.27;99770.19;5052578;28;20056;-62
2023/05/30 10:17:56;;;;;;;5.60;2.08;;;;;;;27.57;16.31;99764.94;5052480;28;20048;-64
2023/05/30 10:20:25;;;;;;;4.28;2.00;;;;;;;27.50;16.20;99770.56;5035073;28;20448;-67
2023/05/30 10:22:54;;;;;;;3.40;2.00;;;;;;;27.20;16.43;99765.94;5052682;28;20500;-65
2023/05/30 10:25:26;;;;;;;7.50;2.20;;;;;;;27.13;16.75;99770.72;5034229;28;20483;-66
2023/05/30 10:27:54;;;;;;;3.30;2.00;;;;;;;26.88;17.16;99769.78;5035184;28;20029;-65
2023/05/30 10:30:25;;;;;;;2.80;1.77;;;;;;;26.84;17.15;99773.22;5052148;28;20027;-68
2023/05/30 10:33:07;;;;;;;5.55;2.10;;;;;;;26.89;17.14;99767.91;5052223;28;20037;-70
2023/05/30 10:35:33;;;;;;;5.70;2.30;;;;;;;26.74;17.58;99749.88;5052243;28;20025;-67
2023/05/30 10:37:59;;;;;;;4.05;2.00;;;;;;;26.83;17.20;99760.56;5052259;28;20029;-67
2023/05/30 10:40:29;;;;;;;3.95;2.38;;;;;;;26.78;17.08;99753.03;5051327;28;20039;-67
2023/05/30 10:43:10;;;;;;;5.38;2.20;;;;;;;26.87;17.08;99750.81;5052367;28;20036;-68
2023/05/30 10:46:13;;;;;;;5.50;2.65;;;;;;;26.84;17.10;99754.81;5050487;28;20129;-67
2023/05/30 10:48:59;;;;;;;4.22;2.30;;;;;;;26.82;17.09;99742.41;5039830;28;20037;-67
2023/05/30 10:51:25;;;;;;;2.83;1.80;;;;;;;26.68;16.95;99737.09;5050055;28;20025;-68
2023/05/30 10:53:51;;;;;;;2.60;1.75;;;;;;;26.51;17.56;99734.16;5051885;28;20033;-66
2023/05/30 10:56:29;;;;;;;4.47;2.10;;;;;;;26.66;17.17;99742.00;5052099;28;20039;-70
2023/05/30 10:58:56;;;;;;;4.95;2.20;;;;;;;26.57;16.95;99735.16;5050724;28;20032;-67
2023/05/30 11:01:34;;;;;;;3.20;2.20;;;;;;;26.74;16.83;99729.84;5033372;28;20470;-67
2023/05/30 11:04:04;;;;;;;6.50;2.45;;;;;;;26.73;16.82;99739.16;5052482;28;20040;-65
2023/05/30 11:06:35;;;;;;;5.30;2.03;;;;;;;26.68;17.03;99726.13;5051375;28;20410;-66
2023/05/30 11:09:08;;;;;;;3.70;1.83;;;;;;;26.50;17.09;99691.31;5051664;28;20033;-67
2023/05/30 11:11:40;;;;;;;3.25;1.88;;;;;;;26.74;17.08;99733.41;5051618;28;20111;-67
2023/05/30 11:14:07;;;;;;;5.93;1.90;;;;;;;26.61;17.17;99720.72;5047094;28;20033;-67
2023/05/30 11:16:33;;;;;;;3.25;2.10;;;;;;;26.63;17.13;99720.50;5051807;28;20025;-66
2023/05/30 11:19:11;;;;;;;3.05;2.10;;;;;;;26.87;16.95;99718.66;5052117;28;20049;-67
2023/05/30 11:21:56;;;;;;;3.53;1.90;;;;;;;26.96;16.79;99713.69;5049638;28;20040;-65
2023/05/30 11:24:26;;;;;;;3.95;2.17;;;;;;;26.79;16.81;99697.88;5051570;28;20166;-66
2023/05/30 11:26:56;;;;;;;16.35;2.35;;;;;;;26.77;17.55;99707.41;5051681;28;20040;-67
2023/05/30 11:29:49;;;;;;;4.97;2.10;;;;;;;26.83;16.81;99700.97;5050394;28;20113;-67
2023/05/30 11:32:22;;;;;;;3.75;2.00;;;;;;;26.87;16.96;99707.69;5052043;28;20111;-67
2023/05/30 11:35:01;;;;;;;6.50;2.03;;;;;;;26.92;16.90;99694.09;5051123;28;20028;-67